Mincy, Missouri
Current Conditions -  °F | °C
As of 9:45 AM on Saturday 25 Oct 2014 (Local Time) from KBBG Reporting Station
Clear Clear  
Wind Chill: 72°   Ceiling: Unl
Heat Index: 72°   Visibility: 10mi
Dew Point: 61°   Wind: 5mph
Humidity: 69%   Direction: 240°WSW
Pressure: 30.13"   Gusts: NA
Location:  36.5876°N, 93.1264°W
Report Text: KBBG 251445Z 24004KT 10SM SKC 22/16 A3013
Loading
Personal Weather Stations






























Interactive Weather Map
Tropical Storm Tracking
New forecast layout! Learn more

10-Day Weather Forecast

Advertisements
Track Severe Weather on mobile